createdAt,value
2022-08-30T00:01:03.115Z,101624.13
2022-08-30T00:03:34.973Z,101616.81
2022-08-30T00:06:01.857Z,101608.38
2022-08-30T00:08:28.965Z,101620.88
2022-08-30T00:10:55.664Z,101620.88
2022-08-30T00:13:22.882Z,101621.66
2022-08-30T00:15:49.665Z,101617.72
2022-08-30T00:18:18.510Z,101605.34
2022-08-30T00:20:47.609Z,101612.19
2022-08-30T00:23:14.531Z,101604.28
2022-08-30T00:25:41.471Z,101593.47
2022-08-30T00:28:09.609Z,101597.97
2022-08-30T00:30:37.189Z,101594.81
2022-08-30T00:33:04.600Z,101595.38
2022-08-30T00:35:31.596Z,101603.00
2022-08-30T00:37:58.373Z,101602.75
2022-08-30T00:40:27.582Z,101603.44
2022-08-30T00:42:59.913Z,101601.06
2022-08-30T00:45:32.372Z,101594.75
2022-08-30T00:47:59.587Z,101606.38
2022-08-30T00:50:31.018Z,101601.19
2022-08-30T00:53:00.831Z,101601.97
2022-08-30T00:55:27.993Z,101599.13
2022-08-30T00:57:59.132Z,101594.75
2022-08-30T01:00:27.706Z,101608.00
2022-08-30T01:02:54.907Z,101607.25
2022-08-30T01:05:23.923Z,101598.47
2022-08-30T01:07:51.132Z,101609.69
2022-08-30T01:10:17.929Z,101600.13
2022-08-30T01:12:45.852Z,101604.50
2022-08-30T01:15:16.846Z,101608.13
2022-08-30T01:17:46.787Z,101615.00
2022-08-30T01:20:20.461Z,101604.97
2022-08-30T01:22:50.029Z,101611.47
2022-08-30T01:25:27.499Z,101607.53
2022-08-30T01:28:01.546Z,101615.19
2022-08-30T01:30:29.929Z,101612.38
2022-08-30T01:32:59.824Z,101608.47
2022-08-30T01:35:27.185Z,101601.25
2022-08-30T01:37:54.036Z,101601.38
2022-08-30T01:40:21.135Z,101598.63
2022-08-30T01:42:48.550Z,101602.78
2022-08-30T01:45:15.110Z,101606.81
2022-08-30T01:47:42.395Z,101610.06
2022-08-30T01:50:10.738Z,101612.88
2022-08-30T01:52:37.694Z,101605.41
2022-08-30T01:55:05.412Z,101611.84
2022-08-30T01:57:32.151Z,101619.47
2022-08-30T01:59:58.608Z,101619.09
2022-08-30T02:02:27.445Z,101623.94
2022-08-30T02:04:54.727Z,101625.50
2022-08-30T02:07:22.570Z,101627.63
2022-08-30T02:09:49.486Z,101621.66
2022-08-30T02:12:15.943Z,101628.56
2022-08-30T02:14:42.707Z,101620.59
2022-08-30T02:17:10.870Z,101620.25
2022-08-30T02:19:37.437Z,101630.41
2022-08-30T02:22:04.682Z,101620.50
2022-08-30T02:24:31.189Z,101618.13
2022-08-30T02:26:57.811Z,101616.56
2022-08-30T02:29:25.337Z,101615.75
2022-08-30T02:31:51.858Z,101604.53
2022-08-30T02:34:18.809Z,101596.66
2022-08-30T02:36:46.083Z,101610.41
2022-08-30T02:39:13.988Z,101616.91
2022-08-30T02:41:41.435Z,101605.84
2022-08-30T02:44:08.533Z,101601.00
2022-08-30T02:46:35.615Z,101602.75
2022-08-30T02:49:13.171Z,101605.63
2022-08-30T02:51:49.603Z,101595.72
2022-08-30T02:54:19.879Z,101601.38
2022-08-30T02:56:50.507Z,101591.91
2022-08-30T02:59:18.387Z,101602.25
2022-08-30T03:01:45.193Z,101606.78
2022-08-30T03:04:11.827Z,101597.59
2022-08-30T03:06:38.791Z,101599.78
2022-08-30T03:09:05.367Z,101593.88
2022-08-30T03:11:32.227Z,101601.94
2022-08-30T03:13:59.101Z,101598.41
2022-08-30T03:16:25.609Z,101604.47
2022-08-30T03:18:52.232Z,101611.03
2022-08-30T03:21:18.910Z,101605.91
2022-08-30T03:23:45.604Z,101602.72
2022-08-30T03:26:14.697Z,101595.63
2022-08-30T03:28:44.405Z,101600.97
2022-08-30T03:31:11.533Z,101600.59
2022-08-30T03:33:42.135Z,101594.69
2022-08-30T03:36:09.936Z,101599.16
2022-08-30T03:38:36.753Z,101591.94
2022-08-30T03:41:04.265Z,101591.66
2022-08-30T03:43:33.370Z,101593.75
2022-08-30T03:46:02.068Z,101592.94
2022-08-30T03:48:30.024Z,101592.59
2022-08-30T03:50:57.611Z,101594.97
2022-08-30T03:53:26.943Z,101591.38
2022-08-30T03:55:54.829Z,101598.63
2022-08-30T03:58:21.543Z,101601.88
2022-08-30T04:00:48.038Z,101605.81
2022-08-30T04:03:15.211Z,101606.97
2022-08-30T04:05:41.872Z,101613.44
2022-08-30T04:08:08.395Z,101615.47
2022-08-30T04:10:35.259Z,101616.69
2022-08-30T04:13:01.786Z,101616.31
2022-08-30T04:15:28.419Z,101609.56
2022-08-30T04:17:54.999Z,101620.69
2022-08-30T04:20:21.667Z,101621.84
2022-08-30T04:22:48.145Z,101622.34
2022-08-30T04:25:15.659Z,101610.34
2022-08-30T04:27:43.197Z,101614.38
2022-08-30T04:30:10.420Z,101613.56
2022-08-30T04:32:38.304Z,101618.81
2022-08-30T04:35:05.965Z,101623.28
2022-08-30T04:37:32.545Z,101630.56
2022-08-30T04:40:02.067Z,101631.41
2022-08-30T04:42:32.059Z,101632.25
2022-08-30T04:45:00.186Z,101626.66
2022-08-30T04:47:26.884Z,101622.72
2022-08-30T04:49:53.604Z,101623.56
2022-08-30T04:52:20.162Z,101623.59
2022-08-30T04:54:46.661Z,101625.34
2022-08-30T04:57:13.150Z,101619.34
2022-08-30T04:59:39.750Z,101622.59
2022-08-30T05:02:06.269Z,101629.41
2022-08-30T05:04:32.798Z,101631.84
2022-08-30T05:06:59.294Z,101634.72
2022-08-30T05:09:25.766Z,101633.53
2022-08-30T05:11:52.270Z,101640.78
2022-08-30T05:14:18.855Z,101639.63
2022-08-30T05:16:46.373Z,101636.84
2022-08-30T05:19:12.987Z,101647.22
2022-08-30T05:21:40.705Z,101648.88
2022-08-30T05:24:07.896Z,101652.09
2022-08-30T05:26:38.048Z,101654.47
2022-08-30T05:29:04.570Z,101653.63
2022-08-30T05:31:34.308Z,101661.19
2022-08-30T05:34:01.941Z,101658.38
2022-08-30T05:36:33.301Z,101659.97
2022-08-30T05:39:00.603Z,101661.53
2022-08-30T05:41:28.609Z,101658.25
2022-08-30T05:43:57.788Z,101661.00
2022-08-30T05:46:24.848Z,101663.75
2022-08-30T05:48:51.931Z,101666.94
2022-08-30T05:51:25.457Z,101667.34
2022-08-30T05:53:53.501Z,101669.28
2022-08-30T05:56:24.807Z,101671.22
2022-08-30T05:58:53.432Z,101668.38
2022-08-30T06:01:21.306Z,101669.53
2022-08-30T06:03:48.729Z,101666.25
2022-08-30T06:06:16.067Z,101668.97
2022-08-30T06:08:45.569Z,101676.91
2022-08-30T06:11:13.259Z,101680.84
2022-08-30T06:13:40.635Z,101678.44
2022-08-30T06:16:07.683Z,101671.13
2022-08-30T06:18:34.288Z,101667.41
2022-08-30T06:21:00.771Z,101678.91
2022-08-30T06:23:28.800Z,101676.13
2022-08-30T06:25:55.299Z,101673.75
2022-08-30T06:28:21.848Z,101677.22
2022-08-30T06:30:48.382Z,101681.09
2022-08-30T06:33:14.892Z,101683.47
2022-08-30T06:35:56.756Z,101688.63
2022-08-30T06:38:25.846Z,101689.00
2022-08-30T06:40:52.322Z,101685.69
2022-08-30T06:43:18.817Z,101691.69
2022-08-30T06:45:45.321Z,101690.72
2022-08-30T06:48:12.378Z,101691.38
2022-08-30T06:50:38.967Z,101687.66
2022-08-30T06:53:06.056Z,101681.13
2022-08-30T06:55:33.482Z,101676.16
2022-08-30T06:58:01.285Z,101675.91
2022-08-30T07:00:28.912Z,101680.53
2022-08-30T07:02:55.791Z,101678.81
2022-08-30T07:05:23.707Z,101674.97
2022-08-30T07:07:53.313Z,101677.19
2022-08-30T07:10:21.430Z,101673.50
2022-08-30T07:12:48.777Z,101674.91
2022-08-30T07:15:15.326Z,101675.19
2022-08-30T07:18:01.128Z,101675.38
2022-08-30T07:20:27.591Z,101665.97
2022-08-30T07:23:06.798Z,101675.09
2022-08-30T07:25:33.364Z,101677.72
2022-08-30T07:27:59.860Z,101673.59
2022-08-30T07:30:26.467Z,101679.09
2022-08-30T07:32:53.034Z,101684.19
2022-08-30T07:35:19.557Z,101666.78
2022-08-30T07:37:46.051Z,101672.66
2022-08-30T07:40:13.023Z,101680.38
2022-08-30T07:42:40.966Z,101678.97
2022-08-30T07:45:09.008Z,101691.50
2022-08-30T07:47:35.999Z,101681.28
2022-08-30T07:50:03.023Z,101689.97
2022-08-30T07:52:30.721Z,101681.53
2022-08-30T07:54:59.113Z,101690.16
2022-08-30T07:57:26.319Z,101684.63
2022-08-30T07:59:53.100Z,101684.03
2022-08-30T08:02:20.153Z,101682.16
2022-08-30T08:04:48.457Z,101691.06
2022-08-30T08:07:15.390Z,101691.22
2022-08-30T08:09:42.202Z,101693.91
2022-08-30T08:12:09.075Z,101693.91
2022-08-30T08:14:36.068Z,101693.81
2022-08-30T08:17:03.141Z,101694.28
2022-08-30T08:19:29.668Z,101701.84
2022-08-30T08:22:15.641Z,101701.53
2022-08-30T08:24:45.997Z,101700.63
2022-08-30T08:27:12.524Z,101705.81
2022-08-30T08:29:39.436Z,101700.06
2022-08-30T08:32:06.024Z,101691.97
2022-08-30T08:34:32.589Z,101705.47
2022-08-30T08:36:59.081Z,101702.41
2022-08-30T08:39:25.590Z,101697.56
2022-08-30T08:41:57.846Z,101703.09
2022-08-30T08:44:54.802Z,101704.31
2022-08-30T08:47:21.884Z,101715.91
2022-08-30T08:49:54.259Z,101708.34
2022-08-30T08:52:58.814Z,101704.13
2022-08-30T08:55:25.864Z,101701.78
2022-08-30T08:57:52.524Z,101706.47
2022-08-30T09:00:19.599Z,101704.53
2022-08-30T09:02:55.872Z,101704.56
2022-08-30T09:05:26.109Z,101700.56
2022-08-30T09:07:59.456Z,101697.63
2022-08-30T09:10:46.980Z,101695.13
2022-08-30T09:13:14.066Z,101711.22
2022-08-30T09:15:41.187Z,101701.19
2022-08-30T09:18:19.164Z,101697.78
2022-08-30T09:20:51.484Z,101699.69
2022-08-30T09:23:28.724Z,101692.16
2022-08-30T09:26:06.660Z,101696.75
2022-08-30T09:28:34.810Z,101692.53
2022-08-30T09:31:18.520Z,101696.31
2022-08-30T09:33:54.655Z,101698.69
2022-08-30T09:36:32.362Z,101701.19
2022-08-30T09:39:06.199Z,101696.81
2022-08-30T09:41:44.333Z,101700.03
2022-08-30T09:44:28.098Z,101689.84
2022-08-30T09:46:57.358Z,101690.97
2022-08-30T09:49:37.822Z,101696.31
2022-08-30T09:52:19.343Z,101691.44
2022-08-30T09:55:05.113Z,101694.13
2022-08-30T09:57:44.029Z,101688.53
2022-08-30T10:00:21.537Z,101685.25
2022-08-30T10:03:30.059Z,101677.88
2022-08-30T10:06:06.076Z,101680.22
2022-08-30T10:08:55.926Z,101675.16
2022-08-30T10:11:52.673Z,101670.72
2022-08-30T10:14:51.257Z,101685.16
2022-08-30T10:17:41.278Z,101669.91
2022-08-30T10:20:08.559Z,101670.97
2022-08-30T10:22:40.714Z,101674.41
2022-08-30T10:25:17.357Z,101671.25
2022-08-30T10:27:54.573Z,101673.44
2022-08-30T10:30:22.997Z,101673.69
2022-08-30T10:32:59.588Z,101665.91
2022-08-30T10:35:34.058Z,101655.34
2022-08-30T10:38:10.170Z,101657.59
2022-08-30T10:41:01.140Z,101661.38
2022-08-30T10:43:43.241Z,101657.44
2022-08-30T10:46:54.256Z,101661.63
2022-08-30T10:49:28.313Z,101660.66
2022-08-30T10:52:17.045Z,101653.13
2022-08-30T10:54:50.519Z,101660.06
2022-08-30T10:57:19.236Z,101645.41
2022-08-30T11:00:11.118Z,101654.31
2022-08-30T11:02:58.639Z,101647.84
2022-08-30T11:05:37.223Z,101654.69
2022-08-30T11:08:28.643Z,101645.94
2022-08-30T11:11:16.401Z,101651.81
2022-08-30T11:13:45.211Z,101646.69
2022-08-30T11:16:18.924Z,101650.19
2022-08-30T11:18:53.737Z,101649.63
2022-08-30T11:21:37.496Z,101644.06
2022-08-30T11:24:19.669Z,101639.59
2022-08-30T11:26:46.137Z,101647.63
2022-08-30T11:29:37.498Z,101644.94
2022-08-30T11:32:13.047Z,101654.34
2022-08-30T11:34:48.381Z,101638.75
2022-08-30T11:37:35.930Z,101640.59
2022-08-30T11:40:24.657Z,101648.56
2022-08-30T11:42:54.497Z,101643.22
2022-08-30T11:45:25.240Z,101647.38
2022-08-30T11:47:54.603Z,101640.69
2022-08-30T11:50:48.348Z,101636.09
2022-08-30T11:53:23.928Z,101631.69
2022-08-30T11:56:06.773Z,101628.34
2022-08-30T11:58:49.445Z,101626.94
2022-08-30T12:01:42.027Z,101630.06
2022-08-30T12:04:28.478Z,101629.06
2022-08-30T12:07:04.250Z,101620.28
2022-08-30T12:09:30.737Z,101627.06
2022-08-30T12:12:12.461Z,101615.44
2022-08-30T12:14:49.348Z,101603.69
2022-08-30T12:17:50.560Z,101614.59
2022-08-30T12:20:31.586Z,101614.19
2022-08-30T12:23:17.060Z,101610.91
2022-08-30T12:25:44.325Z,101618.09
2022-08-30T12:28:14.813Z,101615.88
2022-08-30T12:30:42.039Z,101606.97
2022-08-30T12:33:14.313Z,101600.06
2022-08-30T12:35:43.687Z,101595.47
2022-08-30T12:38:26.753Z,101602.50
2022-08-30T12:40:58.497Z,101605.38
2022-08-30T12:43:38.754Z,101598.09
2022-08-30T12:46:11.539Z,101603.31
2022-08-30T12:48:40.721Z,101589.47
2022-08-30T12:51:10.823Z,101586.88
2022-08-30T12:53:46.135Z,101580.38
2022-08-30T12:56:21.217Z,101598.56
2022-08-30T12:58:57.042Z,101588.63
2022-08-30T13:01:33.846Z,101579.75
2022-08-30T13:04:18.627Z,101578.66
2022-08-30T13:06:49.860Z,101581.91
2022-08-30T13:09:32.537Z,101571.72
2022-08-30T13:12:01.780Z,101576.59
2022-08-30T13:14:44.300Z,101576.44
2022-08-30T13:17:19.559Z,101569.81
2022-08-30T13:20:17.524Z,101576.34
2022-08-30T13:23:04.912Z,101567.88
2022-08-30T13:25:32.907Z,101574.34
2022-08-30T13:28:01.548Z,101564.16
2022-08-30T13:30:28.869Z,101569.34
2022-08-30T13:32:55.619Z,101565.13
2022-08-30T13:35:22.448Z,101556.50
2022-08-30T13:37:50.305Z,101557.09
2022-08-30T13:40:20.542Z,101561.50
2022-08-30T13:42:47.256Z,101554.81
2022-08-30T13:48:02.124Z,101560.78
2022-08-30T13:50:28.766Z,101560.59
2022-08-30T13:52:57.217Z,101555.91
2022-08-30T13:55:23.736Z,101550.75
2022-08-30T13:57:54.238Z,101547.88
2022-08-30T14:00:22.307Z,101550.47
2022-08-30T14:02:54.491Z,101550.44
2022-08-30T14:05:51.582Z,101542.38
2022-08-30T14:08:49.202Z,101545.94
2022-08-30T14:11:21.076Z,101547.66
2022-08-30T14:16:37.592Z,101551.50
2022-08-30T14:19:04.646Z,101540.59
2022-08-30T14:21:32.360Z,101531.50
2022-08-30T14:23:59.767Z,101539.78
2022-08-30T14:26:33.657Z,101545.75
2022-08-30T14:29:02.308Z,101535.88
2022-08-30T14:31:32.903Z,101538.41
2022-08-30T14:34:01.813Z,101539.19
2022-08-30T14:36:30.999Z,101532.97
2022-08-30T14:38:58.368Z,101530.94
2022-08-30T14:41:25.102Z,101534.88
2022-08-30T14:43:52.032Z,101526.06
2022-08-30T14:46:18.857Z,101529.94
2022-08-30T14:48:45.365Z,101519.59
2022-08-30T14:51:16.865Z,101517.84
2022-08-30T14:53:43.744Z,101520.50
2022-08-30T14:56:13.871Z,101520.56
2022-08-30T14:58:40.466Z,101513.31
2022-08-30T15:01:09.377Z,101517.50
2022-08-30T15:03:38.292Z,101518.56
2022-08-30T15:06:05.937Z,101514.69
2022-08-30T15:08:33.678Z,101511.03
2022-08-30T15:11:08.011Z,101506.88
2022-08-30T15:13:34.598Z,101500.91
2022-08-30T15:16:01.175Z,101502.22
2022-08-30T15:18:27.744Z,101495.72
2022-08-30T15:20:54.268Z,101497.53
2022-08-30T15:23:23.017Z,101491.31
2022-08-30T15:25:51.641Z,101489.72
2022-08-30T15:28:19.165Z,101491.78
2022-08-30T15:30:45.858Z,101483.47
2022-08-30T15:33:12.379Z,101486.53
2022-08-30T15:35:38.907Z,101489.03
2022-08-30T15:38:05.575Z,101490.84
2022-08-30T15:40:35.013Z,101482.00
2022-08-30T15:43:04.662Z,101484.81
2022-08-30T15:45:31.637Z,101487.13
2022-08-30T15:48:00.970Z,101489.38
2022-08-30T15:50:28.579Z,101489.81
2022-08-30T15:52:55.078Z,101488.19
2022-08-30T15:55:21.660Z,101491.56
2022-08-30T15:57:48.253Z,101485.75
2022-08-30T16:00:15.340Z,101483.38
2022-08-30T16:02:41.914Z,101485.16
2022-08-30T16:05:09.852Z,101479.34
2022-08-30T16:07:40.653Z,101476.22
2022-08-30T16:10:08.715Z,101476.22
2022-08-30T16:12:35.299Z,101476.97
2022-08-30T16:15:01.805Z,101468.88
2022-08-30T16:17:28.608Z,101461.31
2022-08-30T16:19:58.878Z,101462.53
2022-08-30T16:22:26.468Z,101458.03
2022-08-30T16:24:52.985Z,101445.81
2022-08-30T16:27:19.479Z,101447.09
2022-08-30T16:29:48.078Z,101448.38
2022-08-30T16:32:17.334Z,101453.66
2022-08-30T16:34:43.959Z,101447.00
2022-08-30T16:37:10.456Z,101457.84
2022-08-30T16:39:36.951Z,101449.97
2022-08-30T16:42:04.507Z,101448.34
2022-08-30T16:44:33.615Z,101459.59
2022-08-30T16:47:01.355Z,101450.19
2022-08-30T16:49:28.028Z,101460.19
2022-08-30T16:51:55.009Z,101455.44
2022-08-30T16:54:21.965Z,101455.59
2022-08-30T16:56:49.073Z,101457.03
2022-08-30T16:59:16.720Z,101457.16
2022-08-30T17:01:44.131Z,101442.22
2022-08-30T17:04:12.934Z,101447.00
2022-08-30T17:06:42.454Z,101454.09
2022-08-30T17:09:09.375Z,101453.22
2022-08-30T17:11:37.639Z,101456.97
2022-08-30T17:14:06.853Z,101456.28
2022-08-30T17:16:36.940Z,101446.81
2022-08-30T17:19:06.466Z,101450.63
2022-08-30T17:21:33.923Z,101442.69
2022-08-30T17:24:02.737Z,101451.00
2022-08-30T17:26:31.564Z,101459.31
2022-08-30T17:28:58.565Z,101466.75
2022-08-30T17:31:27.782Z,101467.34
2022-08-30T17:34:01.263Z,101462.03
2022-08-30T17:36:30.420Z,101467.63
2022-08-30T17:38:56.915Z,101474.25
2022-08-30T17:41:23.418Z,101480.13
2022-08-30T17:43:49.933Z,101478.75
2022-08-30T17:46:20.667Z,101467.28
2022-08-30T17:48:47.491Z,101473.56
2022-08-30T17:51:24.543Z,101483.00
2022-08-30T17:53:51.042Z,101473.00
2022-08-30T17:56:17.748Z,101483.75
2022-08-30T17:58:44.349Z,101483.94
2022-08-30T18:01:14.419Z,101484.00
2022-08-30T18:03:42.178Z,101491.72
2022-08-30T18:06:13.004Z,101489.09
2022-08-30T18:08:39.635Z,101486.09
2022-08-30T18:11:06.646Z,101493.72
2022-08-30T18:13:33.482Z,101496.59
2022-08-30T18:16:02.798Z,101499.47
2022-08-30T18:18:29.737Z,101505.66
2022-08-30T18:20:56.308Z,101495.91
2022-08-30T18:23:24.147Z,101509.00
2022-08-30T18:26:00.662Z,101512.50
2022-08-30T18:28:28.295Z,101500.72
2022-08-30T18:30:56.869Z,101513.00
2022-08-30T18:33:27.595Z,101513.34
2022-08-30T18:35:55.322Z,101522.31
2022-08-30T18:38:23.755Z,101523.44
2022-08-30T18:40:51.913Z,101523.59
2022-08-30T18:43:22.924Z,101532.28
2022-08-30T18:45:51.402Z,101521.25
2022-08-30T18:48:19.161Z,101532.56
2022-08-30T18:50:46.846Z,101534.31
2022-08-30T18:53:14.550Z,101534.63
2022-08-30T18:55:56.221Z,101534.00
2022-08-30T18:58:22.810Z,101534.16
2022-08-30T19:00:49.421Z,101539.19
2022-08-30T19:03:18.277Z,101541.72
2022-08-30T19:05:45.624Z,101540.47
2022-08-30T19:08:13.626Z,101546.91
2022-08-30T19:10:40.986Z,101540.94
2022-08-30T19:13:08.170Z,101556.34
2022-08-30T19:15:36.061Z,101555.38
2022-08-30T19:18:12.883Z,101556.19
2022-08-30T19:20:44.474Z,101558.38
2022-08-30T19:23:10.979Z,101558.06
2022-08-30T19:25:39.185Z,101553.81
2022-08-30T19:28:05.843Z,101546.13
2022-08-30T19:30:33.187Z,101556.97
2022-08-30T19:32:59.770Z,101558.06
2022-08-30T19:35:26.898Z,101555.84
2022-08-30T19:37:57.052Z,101564.03
2022-08-30T19:40:23.763Z,101553.31
2022-08-30T19:42:52.604Z,101549.75
2022-08-30T19:45:21.549Z,101554.22
2022-08-30T19:47:49.211Z,101546.72
2022-08-30T19:50:16.859Z,101557.38
2022-08-30T19:52:44.600Z,101551.41
2022-08-30T19:55:13.810Z,101555.97
2022-08-30T19:57:43.585Z,101557.19
2022-08-30T20:00:12.656Z,101555.00
2022-08-30T20:02:44.222Z,101551.84
2022-08-30T20:05:13.322Z,101555.47
2022-08-30T20:07:40.407Z,101557.19
2022-08-30T20:10:11.996Z,101553.56
2022-08-30T20:12:39.818Z,101549.31
2022-08-30T20:15:14.988Z,101551.69
2022-08-30T20:18:02.731Z,101557.16
2022-08-30T20:20:29.988Z,101556.69
2022-08-30T20:22:56.621Z,101554.00
2022-08-30T20:25:23.743Z,101559.03
2022-08-30T20:27:50.346Z,101552.75
2022-08-30T20:30:17.944Z,101555.88
2022-08-30T20:32:46.649Z,101553.31
2022-08-30T20:35:15.350Z,101546.41
2022-08-30T20:37:43.353Z,101556.47
2022-08-30T20:40:15.643Z,101549.22
2022-08-30T20:42:45.615Z,101553.91
2022-08-30T20:45:14.564Z,101555.59
2022-08-30T20:47:42.864Z,101560.13
2022-08-30T20:50:13.410Z,101561.03
2022-08-30T20:52:40.961Z,101556.00
2022-08-30T20:57:52.800Z,101560.69
2022-08-30T21:00:19.509Z,101557.84
2022-08-30T21:02:46.833Z,101551.38
2022-08-30T21:05:15.683Z,101555.13
2022-08-30T21:07:44.354Z,101546.78
2022-08-30T21:10:11.938Z,101551.50
2022-08-30T21:12:39.062Z,101546.78
2022-08-30T21:15:33.784Z,101545.50
2022-08-30T21:17:53.338Z,101541.69
2022-08-30T21:20:19.856Z,101551.41
2022-08-30T21:22:46.790Z,101551.69
2022-08-30T21:25:13.260Z,101552.59
2022-08-30T21:27:39.782Z,101555.81
2022-08-30T21:30:06.679Z,101564.75
2022-08-30T21:32:33.201Z,101562.81
2022-08-30T21:35:18.371Z,101565.75
2022-08-30T21:37:45.646Z,101569.16
2022-08-30T21:40:14.969Z,101570.53
2022-08-30T21:42:41.890Z,101561.09
2022-08-30T21:45:08.933Z,101566.88
2022-08-30T21:47:35.475Z,101571.81
2022-08-30T21:50:02.159Z,101574.44
2022-08-30T21:52:28.661Z,101576.25
2022-08-30T21:54:55.133Z,101572.56
2022-08-30T21:57:21.685Z,101580.38
2022-08-30T21:59:48.162Z,101583.19
2022-08-30T22:02:14.838Z,101584.44
2022-08-30T22:04:41.699Z,101589.63
2022-08-30T22:07:08.389Z,101587.81
2022-08-30T22:09:35.580Z,101593.91
2022-08-30T22:12:04.089Z,101590.41
2022-08-30T22:14:33.524Z,101585.69
2022-08-30T22:17:00.089Z,101590.22
2022-08-30T22:19:26.751Z,101589.09
2022-08-30T22:22:01.160Z,101593.69
2022-08-30T22:24:31.941Z,101594.47
2022-08-30T22:27:00.612Z,101589.84
2022-08-30T22:29:27.104Z,101594.03
2022-08-30T22:31:54.263Z,101597.75
2022-08-30T22:34:20.889Z,101599.13
2022-08-30T22:36:47.438Z,101609.69
2022-08-30T22:39:13.910Z,101607.34
2022-08-30T22:41:45.843Z,101603.97
2022-08-30T22:44:12.398Z,101600.34
2022-08-30T22:46:39.876Z,101606.88
2022-08-30T22:49:09.041Z,101603.72
2022-08-30T22:51:36.345Z,101611.50
2022-08-30T22:54:04.726Z,101610.72
2022-08-30T22:56:34.438Z,101609.69
2022-08-30T22:59:00.933Z,101607.22
2022-08-30T23:01:31.171Z,101605.63
2022-08-30T23:03:58.986Z,101607.31
2022-08-30T23:06:25.782Z,101609.09
2022-08-30T23:08:52.855Z,101612.38
2022-08-30T23:11:20.273Z,101606.50
2022-08-30T23:13:47.114Z,101609.44
2022-08-30T23:16:14.836Z,101615.97
2022-08-30T23:18:43.288Z,101613.16
2022-08-30T23:21:14.798Z,101622.47
2022-08-30T23:24:00.403Z,101612.56
2022-08-30T23:26:45.919Z,101613.81
2022-08-30T23:29:31.644Z,101615.09
2022-08-30T23:32:16.944Z,101611.94
2022-08-30T23:35:02.243Z,101609.13
2022-08-30T23:37:48.528Z,101617.69
2022-08-30T23:40:38.455Z,101610.25
2022-08-30T23:43:23.724Z,101611.91
2022-08-30T23:46:08.670Z,101604.03
2022-08-30T23:48:53.917Z,101611.00
2022-08-30T23:51:39.288Z,101606.63
2022-08-30T23:54:25.191Z,101613.91
2022-08-30T23:57:11.102Z,101617.19
2022-08-30T23:59:56.803Z,101612.88
